Terminal Aerodrome Forecast
Issued by NWS

Home | Current Version | Previous Version | Text Only | Print | Product List | Glossary On
Versions: 1 2 3 4 5 6 7 8 9 10 11 12 13 14 15 16 17 18 19 20 21 22 23 24 25 26 27 28 29 30 31 32
000
FTUS45 KBOU 221736
TAFBJC
TAF
KBJC 221736Z 2218/2318 08008KT P6SM FEW100 SCT200
     FM230000 12007KT P6SM SCT100 BKN200
     FM230300 VRB05KT P6SM FEW110 SCT200
     FM230800 30007KT P6SM FEW100 SCT200=

USA.gov is the U.S. government's official web portal to all federal, state and local government web resources and services.